sensor_id;sensor_type;location;lat;lon;timestamp;P1;durP1;ratioP1;P2;durP2;ratioP2
54849;SDS011;47660;51.334;12.396;2022-10-12T00:00:03;6.28;;;2.65;;
54849;SDS011;47660;51.334;12.396;2022-10-12T00:02:28;11.13;;;3.25;;
54849;SDS011;47660;51.334;12.396;2022-10-12T00:04:53;4.73;;;2.77;;
54849;SDS011;47660;51.334;12.396;2022-10-12T00:07:19;4.90;;;2.90;;
54849;SDS011;47660;51.334;12.396;2022-10-12T00:09:44;6.72;;;2.97;;
54849;SDS011;47660;51.334;12.396;2022-10-12T00:12:09;10.13;;;2.90;;
54849;SDS011;47660;51.334;12.396;2022-10-12T00:14:35;3.78;;;2.92;;
54849;SDS011;47660;51.334;12.396;2022-10-12T00:17:00;5.40;;;3.15;;
54849;SDS011;47660;51.334;12.396;2022-10-12T00:19:26;4.65;;;3.15;;
54849;SDS011;47660;51.334;12.396;2022-10-12T00:21:51;8.00;;;3.53;;
54849;SDS011;47660;51.334;12.396;2022-10-12T00:24:16;12.32;;;3.13;;
54849;SDS011;47660;51.334;12.396;2022-10-12T00:26:41;12.02;;;4.15;;
54849;SDS011;47660;51.334;12.396;2022-10-12T00:29:09;10.27;;;3.03;;
54849;SDS011;47660;51.334;12.396;2022-10-12T00:31:34;10.70;;;3.83;;
54849;SDS011;47660;51.334;12.396;2022-10-12T00:34:00;11.15;;;3.25;;
54849;SDS011;47660;51.334;12.396;2022-10-12T00:36:27;7.85;;;2.88;;
54849;SDS011;47660;51.334;12.396;2022-10-12T00:38:54;13.27;;;4.20;;
54849;SDS011;47660;51.334;12.396;2022-10-12T00:41:21;6.13;;;2.95;;
54849;SDS011;47660;51.334;12.396;2022-10-12T00:43:47;6.78;;;3.13;;
54849;SDS011;47660;51.334;12.396;2022-10-12T00:46:20;9.45;;;2.67;;
54849;SDS011;47660;51.334;12.396;2022-10-12T00:49:33;4.43;;;2.77;;
54849;SDS011;47660;51.334;12.396;2022-10-12T00:51:34;4.45;;;2.13;;
54849;SDS011;47660;51.334;12.396;2022-10-12T00:54:01;5.88;;;3.10;;
54849;SDS011;47660;51.334;12.396;2022-10-12T00:56:28;11.63;;;2.78;;
54849;SDS011;47660;51.334;12.396;2022-10-12T00:58:56;6.65;;;3.42;;
54849;SDS011;47660;51.334;12.396;2022-10-12T01:01:23;9.07;;;3.42;;
54849;SDS011;47660;51.334;12.396;2022-10-12T01:03:48;5.80;;;3.15;;
54849;SDS011;47660;51.334;12.396;2022-10-12T01:06:13;8.82;;;4.07;;
54849;SDS011;47660;51.334;12.396;2022-10-12T01:08:41;4.93;;;3.13;;
54849;SDS011;47660;51.334;12.396;2022-10-12T01:11:06;9.25;;;3.85;;
54849;SDS011;47660;51.334;12.396;2022-10-12T01:13:32;6.93;;;3.75;;
54849;SDS011;47660;51.334;12.396;2022-10-12T01:16:04;6.65;;;3.85;;
54849;SDS011;47660;51.334;12.396;2022-10-12T01:18:54;9.32;;;4.38;;
54849;SDS011;47660;51.334;12.396;2022-10-12T01:21:18;8.40;;;4.30;;
54849;SDS011;47660;51.334;12.396;2022-10-12T01:31:44;7.53;;;4.22;;
54849;SDS011;47660;51.334;12.396;2022-10-12T01:34:17;7.65;;;3.70;;
54849;SDS011;47660;51.334;12.396;2022-10-12T01:36:44;11.45;;;3.55;;
54849;SDS011;47660;51.334;12.396;2022-10-12T01:41:43;9.13;;;4.53;;
54849;SDS011;47660;51.334;12.396;2022-10-12T01:44:10;5.88;;;4.20;;
54849;SDS011;47660;51.334;12.396;2022-10-12T01:46:40;6.80;;;4.28;;
54849;SDS011;47660;51.334;12.396;2022-10-12T01:49:05;9.48;;;4.15;;
54849;SDS011;47660;51.334;12.396;2022-10-12T01:56:52;10.23;;;5.00;;
54849;SDS011;47660;51.334;12.396;2022-10-12T02:04:17;6.87;;;3.83;;
54849;SDS011;47660;51.334;12.396;2022-10-12T02:06:49;5.95;;;3.15;;
54849;SDS011;47660;51.334;12.396;2022-10-12T02:11:43;6.70;;;4.20;;
54849;SDS011;47660;51.334;12.396;2022-10-12T02:14:14;9.48;;;4.05;;
54849;SDS011;47660;51.334;12.396;2022-10-12T02:16:41;11.32;;;3.92;;
54849;SDS011;47660;51.334;12.396;2022-10-12T02:19:08;9.00;;;3.60;;
54849;SDS011;47660;51.334;12.396;2022-10-12T02:21:34;10.30;;;4.30;;
54849;SDS011;47660;51.334;12.396;2022-10-12T02:24:01;6.10;;;2.47;;
54849;SDS011;47660;51.334;12.396;2022-10-12T02:26:27;7.05;;;3.17;;
54849;SDS011;47660;51.334;12.396;2022-10-12T02:28:53;6.53;;;3.38;;
54849;SDS011;47660;51.334;12.396;2022-10-12T02:31:36;9.60;;;3.55;;
54849;SDS011;47660;51.334;12.396;2022-10-12T02:34:12;8.15;;;2.80;;
54849;SDS011;47660;51.334;12.396;2022-10-12T02:36:42;6.43;;;3.58;;
54849;SDS011;47660;51.334;12.396;2022-10-12T02:39:20;4.80;;;3.15;;
54849;SDS011;47660;51.334;12.396;2022-10-12T02:41:48;7.10;;;2.97;;
54849;SDS011;47660;51.334;12.396;2022-10-12T02:44:15;4.60;;;2.65;;
54849;SDS011;47660;51.334;12.396;2022-10-12T02:46:41;6.15;;;2.95;;
54849;SDS011;47660;51.334;12.396;2022-10-12T02:49:07;4.25;;;3.05;;
54849;SDS011;47660;51.334;12.396;2022-10-12T02:51:32;9.27;;;3.00;;
54849;SDS011;47660;51.334;12.396;2022-10-12T02:53:59;4.88;;;3.10;;
54849;SDS011;47660;51.334;12.396;2022-10-12T02:56:24;4.32;;;2.40;;
54849;SDS011;47660;51.334;12.396;2022-10-12T02:58:50;6.30;;;2.67;;
54849;SDS011;47660;51.334;12.396;2022-10-12T03:01:15;5.80;;;3.37;;
54849;SDS011;47660;51.334;12.396;2022-10-12T03:03:41;4.65;;;2.45;;
54849;SDS011;47660;51.334;12.396;2022-10-12T03:06:06;6.22;;;2.85;;
54849;SDS011;47660;51.334;12.396;2022-10-12T03:08:34;8.13;;;2.97;;
54849;SDS011;47660;51.334;12.396;2022-10-12T03:11:02;4.97;;;3.20;;
54849;SDS011;47660;51.334;12.396;2022-10-12T03:13:28;5.07;;;3.25;;
54849;SDS011;47660;51.334;12.396;2022-10-12T03:15:53;3.08;;;2.22;;
54849;SDS011;47660;51.334;12.396;2022-10-12T03:18:18;5.13;;;2.75;;
54849;SDS011;47660;51.334;12.396;2022-10-12T03:20:47;4.55;;;2.17;;
54849;SDS011;47660;51.334;12.396;2022-10-12T03:23:12;2.95;;;2.33;;
54849;SDS011;47660;51.334;12.396;2022-10-12T03:25:40;3.72;;;2.30;;
54849;SDS011;47660;51.334;12.396;2022-10-12T03:28:05;5.70;;;2.47;;
54849;SDS011;47660;51.334;12.396;2022-10-12T03:30:30;3.65;;;2.30;;
54849;SDS011;47660;51.334;12.396;2022-10-12T03:32:56;6.43;;;3.17;;
54849;SDS011;47660;51.334;12.396;2022-10-12T03:35:21;2.75;;;2.00;;
54849;SDS011;47660;51.334;12.396;2022-10-12T03:37:49;4.53;;;2.63;;
54849;SDS011;47660;51.334;12.396;2022-10-12T03:40:17;3.13;;;2.20;;
54849;SDS011;47660;51.334;12.396;2022-10-12T03:42:42;10.95;;;2.53;;
54849;SDS011;47660;51.334;12.396;2022-10-12T03:45:07;6.93;;;2.53;;
54849;SDS011;47660;51.334;12.396;2022-10-12T03:47:33;3.88;;;2.17;;
54849;SDS011;47660;51.334;12.396;2022-10-12T03:49:58;4.57;;;2.53;;
54849;SDS011;47660;51.334;12.396;2022-10-12T03:52:23;7.00;;;2.35;;
54849;SDS011;47660;51.334;12.396;2022-10-12T03:54:49;6.53;;;2.40;;
54849;SDS011;47660;51.334;12.396;2022-10-12T03:57:14;3.22;;;2.20;;
54849;SDS011;47660;51.334;12.396;2022-10-12T03:59:39;2.40;;;2.20;;
54849;SDS011;47660;51.334;12.396;2022-10-12T04:02:04;2.80;;;2.10;;
54849;SDS011;47660;51.334;12.396;2022-10-12T04:04:30;5.57;;;2.85;;
54849;SDS011;47660;51.334;12.396;2022-10-12T04:06:55;4.32;;;2.38;;
54849;SDS011;47660;51.334;12.396;2022-10-12T04:09:20;4.10;;;2.42;;
54849;SDS011;47660;51.334;12.396;2022-10-12T04:11:45;3.20;;;2.17;;
54849;SDS011;47660;51.334;12.396;2022-10-12T04:14:11;8.55;;;2.00;;
54849;SDS011;47660;51.334;12.396;2022-10-12T04:16:36;4.70;;;2.73;;
54849;SDS011;47660;51.334;12.396;2022-10-12T04:19:01;4.40;;;1.83;;
54849;SDS011;47660;51.334;12.396;2022-10-12T04:21:27;2.40;;;2.13;;
54849;SDS011;47660;51.334;12.396;2022-10-12T04:23:54;4.35;;;2.58;;
54849;SDS011;47660;51.334;12.396;2022-10-12T04:26:19;4.67;;;2.47;;
54849;SDS011;47660;51.334;12.396;2022-10-12T04:28:45;3.30;;;2.53;;
54849;SDS011;47660;51.334;12.396;2022-10-12T04:31:10;5.22;;;2.72;;
54849;SDS011;47660;51.334;12.396;2022-10-12T04:33:35;5.07;;;2.75;;
54849;SDS011;47660;51.334;12.396;2022-10-12T04:36:00;3.73;;;1.80;;
54849;SDS011;47660;51.334;12.396;2022-10-12T04:38:28;5.03;;;3.25;;
54849;SDS011;47660;51.334;12.396;2022-10-12T04:40:53;5.82;;;2.50;;
54849;SDS011;47660;51.334;12.396;2022-10-12T04:43:19;18.58;;;3.75;;
54849;SDS011;47660;51.334;12.396;2022-10-12T04:45:49;5.47;;;3.05;;
54849;SDS011;47660;51.334;12.396;2022-10-12T04:48:17;5.95;;;2.90;;
54849;SDS011;47660;51.334;12.396;2022-10-12T04:50:44;6.77;;;3.23;;
54849;SDS011;47660;51.334;12.396;2022-10-12T04:53:09;3.25;;;2.33;;
54849;SDS011;47660;51.334;12.396;2022-10-12T04:55:35;7.47;;;2.88;;
54849;SDS011;47660;51.334;12.396;2022-10-12T04:58:01;3.22;;;2.45;;
54849;SDS011;47660;51.334;12.396;2022-10-12T05:00:26;7.63;;;3.42;;
54849;SDS011;47660;51.334;12.396;2022-10-12T05:02:51;5.45;;;2.67;;
54849;SDS011;47660;51.334;12.396;2022-10-12T05:05:17;3.50;;;2.40;;
54849;SDS011;47660;51.334;12.396;2022-10-12T05:07:42;6.65;;;3.20;;
54849;SDS011;47660;51.334;12.396;2022-10-12T05:10:07;5.82;;;3.50;;
54849;SDS011;47660;51.334;12.396;2022-10-12T05:12:33;5.38;;;3.00;;
54849;SDS011;47660;51.334;12.396;2022-10-12T05:14:58;3.83;;;2.53;;
54849;SDS011;47660;51.334;12.396;2022-10-12T05:17:23;5.57;;;2.75;;
54849;SDS011;47660;51.334;12.396;2022-10-12T05:19:48;10.18;;;3.25;;
54849;SDS011;47660;51.334;12.396;2022-10-12T05:22:13;6.22;;;3.38;;
54849;SDS011;47660;51.334;12.396;2022-10-12T05:24:39;7.22;;;2.78;;
54849;SDS011;47660;51.334;12.396;2022-10-12T05:27:06;4.50;;;2.63;;
54849;SDS011;47660;51.334;12.396;2022-10-12T05:29:31;7.13;;;2.88;;
54849;SDS011;47660;51.334;12.396;2022-10-12T05:31:57;13.95;;;4.00;;
54849;SDS011;47660;51.334;12.396;2022-10-12T05:34:22;6.78;;;2.72;;
54849;SDS011;47660;51.334;12.396;2022-10-12T05:36:47;8.68;;;3.13;;
54849;SDS011;47660;51.334;12.396;2022-10-12T05:39:12;8.15;;;3.38;;
54849;SDS011;47660;51.334;12.396;2022-10-12T05:41:38;4.50;;;3.00;;
54849;SDS011;47660;51.334;12.396;2022-10-12T05:44:05;4.70;;;3.00;;
54849;SDS011;47660;51.334;12.396;2022-10-12T05:46:33;4.65;;;3.10;;
54849;SDS011;47660;51.334;12.396;2022-10-12T05:49:00;6.70;;;3.78;;
54849;SDS011;47660;51.334;12.396;2022-10-12T05:51:26;4.45;;;2.80;;
54849;SDS011;47660;51.334;12.396;2022-10-12T05:53:51;7.95;;;3.28;;
54849;SDS011;47660;51.334;12.396;2022-10-12T05:56:16;10.95;;;3.15;;
54849;SDS011;47660;51.334;12.396;2022-10-12T05:58:41;5.07;;;3.00;;
54849;SDS011;47660;51.334;12.396;2022-10-12T06:01:08;6.22;;;2.92;;
54849;SDS011;47660;51.334;12.396;2022-10-12T06:03:34;11.23;;;3.30;;
54849;SDS011;47660;51.334;12.396;2022-10-12T06:06:02;4.57;;;3.00;;
54849;SDS011;47660;51.334;12.396;2022-10-12T06:08:28;6.53;;;3.10;;
54849;SDS011;47660;51.334;12.396;2022-10-12T06:10:54;6.45;;;3.10;;
54849;SDS011;47660;51.334;12.396;2022-10-12T06:13:19;4.53;;;3.33;;
54849;SDS011;47660;51.334;12.396;2022-10-12T06:15:44;3.70;;;2.90;;
54849;SDS011;47660;51.334;12.396;2022-10-12T06:18:10;5.88;;;3.00;;
54849;SDS011;47660;51.334;12.396;2022-10-12T06:20:35;13.20;;;3.10;;
54849;SDS011;47660;51.334;12.396;2022-10-12T06:23:00;4.20;;;3.00;;
54849;SDS011;47660;51.334;12.396;2022-10-12T06:25:26;6.40;;;2.90;;
54849;SDS011;47660;51.334;12.396;2022-10-12T06:27:51;7.25;;;3.70;;
54849;SDS011;47660;51.334;12.396;2022-10-12T06:30:16;7.53;;;2.60;;
54849;SDS011;47660;51.334;12.396;2022-10-12T06:32:42;5.25;;;3.38;;
54849;SDS011;47660;51.334;12.396;2022-10-12T06:35:07;5.90;;;3.03;;
54849;SDS011;47660;51.334;12.396;2022-10-12T06:37:32;3.65;;;2.42;;
54849;SDS011;47660;51.334;12.396;2022-10-12T06:39:58;5.40;;;2.63;;
54849;SDS011;47660;51.334;12.396;2022-10-12T06:42:23;3.38;;;2.45;;
54849;SDS011;47660;51.334;12.396;2022-10-12T06:44:48;6.13;;;3.08;;
54849;SDS011;47660;51.334;12.396;2022-10-12T06:47:16;3.00;;;2.20;;
54849;SDS011;47660;51.334;12.396;2022-10-12T06:49:41;7.78;;;3.55;;
54849;SDS011;47660;51.334;12.396;2022-10-12T06:52:06;4.70;;;2.67;;
54849;SDS011;47660;51.334;12.396;2022-10-12T06:54:32;6.72;;;3.45;;
54849;SDS011;47660;51.334;12.396;2022-10-12T06:56:57;5.30;;;2.67;;
54849;SDS011;47660;51.334;12.396;2022-10-12T06:59:22;8.13;;;3.42;;
54849;SDS011;47660;51.334;12.396;2022-10-12T07:01:48;6.45;;;3.22;;
54849;SDS011;47660;51.334;12.396;2022-10-12T07:04:14;5.57;;;3.20;;
54849;SDS011;47660;51.334;12.396;2022-10-12T07:06:41;7.10;;;2.80;;
54849;SDS011;47660;51.334;12.396;2022-10-12T07:09:07;4.80;;;2.33;;
54849;SDS011;47660;51.334;12.396;2022-10-12T07:11:34;3.00;;;2.70;;
54849;SDS011;47660;51.334;12.396;2022-10-12T07:14:00;6.13;;;3.45;;
54849;SDS011;47660;51.334;12.396;2022-10-12T07:16:25;7.85;;;2.95;;
54849;SDS011;47660;51.334;12.396;2022-10-12T07:18:50;5.65;;;3.22;;
54849;SDS011;47660;51.334;12.396;2022-10-12T07:21:18;5.78;;;3.70;;
54849;SDS011;47660;51.334;12.396;2022-10-12T07:23:43;8.35;;;4.32;;
54849;SDS011;47660;51.334;12.396;2022-10-12T07:26:11;7.50;;;4.43;;
54849;SDS011;47660;51.334;12.396;2022-10-12T07:28:36;10.77;;;3.67;;
54849;SDS011;47660;51.334;12.396;2022-10-12T07:31:04;5.10;;;3.75;;
54849;SDS011;47660;51.334;12.396;2022-10-12T07:33:33;6.25;;;3.55;;
54849;SDS011;47660;51.334;12.396;2022-10-12T07:36:06;8.07;;;3.65;;
54849;SDS011;47660;51.334;12.396;2022-10-12T07:38:32;10.95;;;3.15;;
54849;SDS011;47660;51.334;12.396;2022-10-12T07:41:00;5.82;;;3.40;;
54849;SDS011;47660;51.334;12.396;2022-10-12T07:43:29;7.07;;;3.30;;
54849;SDS011;47660;51.334;12.396;2022-10-12T07:45:56;7.53;;;2.88;;
54849;SDS011;47660;51.334;12.396;2022-10-12T07:48:21;6.40;;;3.50;;
54849;SDS011;47660;51.334;12.396;2022-10-12T07:50:47;14.63;;;5.57;;
54849;SDS011;47660;51.334;12.396;2022-10-12T07:53:12;4.68;;;3.17;;
54849;SDS011;47660;51.334;12.396;2022-10-12T07:55:40;10.52;;;5.22;;
54849;SDS011;47660;51.334;12.396;2022-10-12T07:58:05;10.30;;;3.17;;
54849;SDS011;47660;51.334;12.396;2022-10-12T08:00:30;5.03;;;2.67;;
54849;SDS011;47660;51.334;12.396;2022-10-12T08:02:56;7.38;;;2.92;;
54849;SDS011;47660;51.334;12.396;2022-10-12T08:05:21;6.18;;;2.40;;
54849;SDS011;47660;51.334;12.396;2022-10-12T08:07:47;3.95;;;2.00;;
54849;SDS011;47660;51.334;12.396;2022-10-12T08:10:13;7.50;;;2.25;;
54849;SDS011;47660;51.334;12.396;2022-10-12T08:12:38;3.72;;;2.10;;
54849;SDS011;47660;51.334;12.396;2022-10-12T08:15:03;4.38;;;2.60;;
54849;SDS011;47660;51.334;12.396;2022-10-12T08:17:29;4.40;;;2.10;;
54849;SDS011;47660;51.334;12.396;2022-10-12T08:19:54;3.40;;;2.10;;
54849;SDS011;47660;51.334;12.396;2022-10-12T08:22:19;5.55;;;2.55;;
54849;SDS011;47660;51.334;12.396;2022-10-12T08:24:47;5.82;;;2.45;;
54849;SDS011;47660;51.334;12.396;2022-10-12T08:27:12;2.92;;;2.10;;
54849;SDS011;47660;51.334;12.396;2022-10-12T08:29:38;3.67;;;2.67;;
54849;SDS011;47660;51.334;12.396;2022-10-12T08:32:03;4.63;;;2.28;;
54849;SDS011;47660;51.334;12.396;2022-10-12T08:34:31;3.83;;;1.90;;
54849;SDS011;47660;51.334;12.396;2022-10-12T08:36:59;3.78;;;1.88;;
54849;SDS011;47660;51.334;12.396;2022-10-12T08:39:25;7.80;;;2.38;;
54849;SDS011;47660;51.334;12.396;2022-10-12T08:49:39;4.82;;;2.03;;
54849;SDS011;47660;51.334;12.396;2022-10-12T08:52:05;5.75;;;2.00;;
54849;SDS011;47660;51.334;12.396;2022-10-12T08:54:37;3.20;;;1.80;;
54849;SDS011;47660;51.334;12.396;2022-10-12T08:57:09;2.78;;;1.40;;
54849;SDS011;47660;51.334;12.396;2022-10-12T08:59:40;4.30;;;2.05;;
54849;SDS011;47660;51.334;12.396;2022-10-12T09:09:55;2.13;;;1.13;;
54849;SDS011;47660;51.334;12.396;2022-10-12T09:14:56;1.65;;;1.30;;
54849;SDS011;47660;51.334;12.396;2022-10-12T09:17:29;1.90;;;1.10;;
54849;SDS011;47660;51.334;12.396;2022-10-12T09:20:00;2.15;;;0.93;;
54849;SDS011;47660;51.334;12.396;2022-10-12T09:22:26;1.90;;;1.05;;
54849;SDS011;47660;51.334;12.396;2022-10-12T09:24:52;6.95;;;1.52;;
54849;SDS011;47660;51.334;12.396;2022-10-12T09:27:18;2.78;;;1.17;;
54849;SDS011;47660;51.334;12.396;2022-10-12T09:29:44;9.73;;;3.50;;
54849;SDS011;47660;51.334;12.396;2022-10-12T09:34:51;7.32;;;1.30;;
54849;SDS011;47660;51.334;12.396;2022-10-12T09:37:18;4.20;;;1.13;;
54849;SDS011;47660;51.334;12.396;2022-10-12T09:39:43;5.15;;;1.23;;
54849;SDS011;47660;51.334;12.396;2022-10-12T09:42:09;6.18;;;1.45;;
54849;SDS011;47660;51.334;12.396;2022-10-12T09:44:40;3.25;;;1.42;;
54849;SDS011;47660;51.334;12.396;2022-10-12T09:47:21;2.78;;;1.20;;
54849;SDS011;47660;51.334;12.396;2022-10-12T09:49:57;2.47;;;1.35;;
54849;SDS011;47660;51.334;12.396;2022-10-12T09:55:06;4.65;;;1.50;;
54849;SDS011;47660;51.334;12.396;2022-10-12T09:57:50;2.45;;;1.73;;
54849;SDS011;47660;51.334;12.396;2022-10-12T10:00:32;3.13;;;1.60;;
54849;SDS011;47660;51.334;12.396;2022-10-12T10:02:58;7.13;;;2.13;;
54849;SDS011;47660;51.334;12.396;2022-10-12T10:07:53;5.18;;;1.50;;
54849;SDS011;47660;51.334;12.396;2022-10-12T10:10:36;5.68;;;1.40;;
54849;SDS011;47660;51.334;12.396;2022-10-12T10:13:04;3.70;;;1.52;;
54849;SDS011;47660;51.334;12.396;2022-10-12T10:15:35;5.18;;;1.65;;
54849;SDS011;47660;51.334;12.396;2022-10-12T10:18:04;4.03;;;1.23;;
54849;SDS011;47660;51.334;12.396;2022-10-12T10:20:43;6.10;;;1.45;;
54849;SDS011;47660;51.334;12.396;2022-10-12T10:25:53;3.88;;;1.77;;
54849;SDS011;47660;51.334;12.396;2022-10-12T10:28:22;4.63;;;1.42;;
54849;SDS011;47660;51.334;12.396;2022-10-12T10:30:56;4.43;;;1.92;;
54849;SDS011;47660;51.334;12.396;2022-10-12T10:33:24;3.75;;;1.30;;
54849;SDS011;47660;51.334;12.396;2022-10-12T10:35:53;5.38;;;1.25;;
54849;SDS011;47660;51.334;12.396;2022-10-12T10:38:19;3.55;;;1.20;;
54849;SDS011;47660;51.334;12.396;2022-10-12T10:40:51;4.88;;;1.65;;
54849;SDS011;47660;51.334;12.396;2022-10-12T10:43:26;1.63;;;1.13;;
54849;SDS011;47660;51.334;12.396;2022-10-12T10:45:56;6.57;;;1.63;;
54849;SDS011;47660;51.334;12.396;2022-10-12T10:48:36;7.47;;;1.48;;
54849;SDS011;47660;51.334;12.396;2022-10-12T10:51:07;3.65;;;1.30;;
54849;SDS011;47660;51.334;12.396;2022-10-12T10:53:43;3.22;;;1.30;;
54849;SDS011;47660;51.334;12.396;2022-10-12T10:56:27;1.25;;;1.15;;
54849;SDS011;47660;51.334;12.396;2022-10-12T10:58:56;3.10;;;1.15;;
54849;SDS011;47660;51.334;12.396;2022-10-12T11:01:24;4.93;;;1.13;;
54849;SDS011;47660;51.334;12.396;2022-10-12T11:03:56;2.15;;;1.10;;
54849;SDS011;47660;51.334;12.396;2022-10-12T11:09:08;1.52;;;1.08;;
54849;SDS011;47660;51.334;12.396;2022-10-12T11:11:35;1.67;;;1.02;;
54849;SDS011;47660;51.334;12.396;2022-10-12T11:14:04;2.90;;;1.02;;
54849;SDS011;47660;51.334;12.396;2022-10-12T11:18:57;3.67;;;1.17;;
54849;SDS011;47660;51.334;12.396;2022-10-12T11:21:37;1.90;;;1.00;;
54849;SDS011;47660;51.334;12.396;2022-10-12T11:24:13;5.63;;;1.35;;
54849;SDS011;47660;51.334;12.396;2022-10-12T11:26:48;1.48;;;1.00;;
54849;SDS011;47660;51.334;12.396;2022-10-12T11:29:14;4.40;;;1.00;;
54849;SDS011;47660;51.334;12.396;2022-10-12T11:31:42;2.92;;;1.10;;
54849;SDS011;47660;51.334;12.396;2022-10-12T11:34:12;4.78;;;1.30;;
54849;SDS011;47660;51.334;12.396;2022-10-12T11:36:40;3.58;;;0.95;;
54849;SDS011;47660;51.334;12.396;2022-10-12T11:39:07;2.40;;;1.20;;
54849;SDS011;47660;51.334;12.396;2022-10-12T11:41:39;1.65;;;1.08;;
54849;SDS011;47660;51.334;12.396;2022-10-12T11:49:19;2.75;;;1.00;;
54849;SDS011;47660;51.334;12.396;2022-10-12T11:51:48;3.75;;;1.10;;
54849;SDS011;47660;51.334;12.396;2022-10-12T11:54:26;4.35;;;0.95;;
54849;SDS011;47660;51.334;12.396;2022-10-12T11:56:54;3.08;;;0.80;;
54849;SDS011;47660;51.334;12.396;2022-10-12T11:59:24;5.15;;;1.50;;
54849;SDS011;47660;51.334;12.396;2022-10-12T12:02:03;4.47;;;1.33;;
54849;SDS011;47660;51.334;12.396;2022-10-12T12:04:31;2.97;;;1.35;;
54849;SDS011;47660;51.334;12.396;2022-10-12T12:09:42;2.20;;;1.23;;
54849;SDS011;47660;51.334;12.396;2022-10-12T12:19:40;4.47;;;1.17;;
54849;SDS011;47660;51.334;12.396;2022-10-12T12:24:37;4.18;;;1.20;;
54849;SDS011;47660;51.334;12.396;2022-10-12T12:29:50;4.55;;;1.30;;
54849;SDS011;47660;51.334;12.396;2022-10-12T12:32:16;4.18;;;1.38;;
54849;SDS011;47660;51.334;12.396;2022-10-12T12:34:46;3.28;;;1.38;;
54849;SDS011;47660;51.334;12.396;2022-10-12T12:37:17;4.47;;;1.52;;
54849;SDS011;47660;51.334;12.396;2022-10-12T12:39:43;3.50;;;1.25;;
54849;SDS011;47660;51.334;12.396;2022-10-12T12:42:18;2.67;;;1.10;;
54849;SDS011;47660;51.334;12.396;2022-10-12T12:44:44;2.47;;;1.10;;
54849;SDS011;47660;51.334;12.396;2022-10-12T12:52:11;2.17;;;1.45;;
54849;SDS011;47660;51.334;12.396;2022-10-12T12:54:42;4.30;;;1.92;;
54849;SDS011;47660;51.334;12.396;2022-10-12T12:57:58;5.50;;;1.67;;
54849;SDS011;47660;51.334;12.396;2022-10-12T13:02:51;2.30;;;1.45;;
54849;SDS011;47660;51.334;12.396;2022-10-12T13:05:28;2.97;;;1.30;;
54849;SDS011;47660;51.334;12.396;2022-10-12T13:10:41;4.38;;;1.48;;
54849;SDS011;47660;51.334;12.396;2022-10-12T13:15:45;2.60;;;1.55;;
54849;SDS011;47660;51.334;12.396;2022-10-12T13:18:24;4.10;;;1.48;;
54849;SDS011;47660;51.334;12.396;2022-10-12T13:20:54;6.63;;;1.70;;
54849;SDS011;47660;51.334;12.396;2022-10-12T13:23:20;2.75;;;1.75;;
54849;SDS011;47660;51.334;12.396;2022-10-12T13:25:47;3.80;;;1.80;;
54849;SDS011;47660;51.334;12.396;2022-10-12T13:28:15;3.25;;;1.42;;
54849;SDS011;47660;51.334;12.396;2022-10-12T13:30:58;6.20;;;1.73;;
54849;SDS011;47660;51.334;12.396;2022-10-12T13:33:27;4.78;;;1.83;;
54849;SDS011;47660;51.334;12.396;2022-10-12T13:35:58;6.55;;;1.60;;
54849;SDS011;47660;51.334;12.396;2022-10-12T13:38:27;3.25;;;1.38;;
54849;SDS011;47660;51.334;12.396;2022-10-12T13:40:54;4.15;;;1.48;;
54849;SDS011;47660;51.334;12.396;2022-10-12T13:43:27;5.47;;;1.55;;
54849;SDS011;47660;51.334;12.396;2022-10-12T13:45:53;4.15;;;1.70;;
54849;SDS011;47660;51.334;12.396;2022-10-12T13:48:20;3.10;;;1.58;;
54849;SDS011;47660;51.334;12.396;2022-10-12T13:50:52;3.45;;;1.38;;
54849;SDS011;47660;51.334;12.396;2022-10-12T13:53:18;2.60;;;1.52;;
54849;SDS011;47660;51.334;12.396;2022-10-12T13:55:49;3.45;;;1.42;;
54849;SDS011;47660;51.334;12.396;2022-10-12T13:58:21;7.15;;;1.90;;
54849;SDS011;47660;51.334;12.396;2022-10-12T14:00:47;2.28;;;1.65;;
54849;SDS011;47660;51.334;12.396;2022-10-12T14:03:16;5.63;;;1.48;;
54849;SDS011;47660;51.334;12.396;2022-10-12T14:05:44;3.03;;;1.58;;
54849;SDS011;47660;51.334;12.396;2022-10-12T14:08:13;4.90;;;1.60;;
54849;SDS011;47660;51.334;12.396;2022-10-12T14:10:39;4.30;;;1.63;;
54849;SDS011;47660;51.334;12.396;2022-10-12T14:13:05;5.13;;;1.73;;
54849;SDS011;47660;51.334;12.396;2022-10-12T14:15:35;4.30;;;1.73;;
54849;SDS011;47660;51.334;12.396;2022-10-12T14:18:02;3.65;;;1.65;;
54849;SDS011;47660;51.334;12.396;2022-10-12T14:20:37;3.80;;;1.45;;
54849;SDS011;47660;51.334;12.396;2022-10-12T14:23:04;2.92;;;1.48;;
54849;SDS011;47660;51.334;12.396;2022-10-12T14:25:34;3.45;;;1.52;;
54849;SDS011;47660;51.334;12.396;2022-10-12T14:28:00;2.50;;;1.60;;
54849;SDS011;47660;51.334;12.396;2022-10-12T14:30:40;4.35;;;1.70;;
54849;SDS011;47660;51.334;12.396;2022-10-12T14:35:41;2.92;;;1.52;;
54849;SDS011;47660;51.334;12.396;2022-10-12T14:40:56;4.22;;;1.80;;
54849;SDS011;47660;51.334;12.396;2022-10-12T14:43:22;3.90;;;1.30;;
54849;SDS011;47660;51.334;12.396;2022-10-12T14:45:51;2.80;;;1.55;;
54849;SDS011;47660;51.334;12.396;2022-10-12T14:48:17;1.85;;;1.42;;
54849;SDS011;47660;51.334;12.396;2022-10-12T14:50:43;1.20;;;0.98;;
54849;SDS011;47660;51.334;12.396;2022-10-12T14:53:11;1.58;;;1.20;;
54849;SDS011;47660;51.334;12.396;2022-10-12T14:55:40;4.65;;;1.70;;
54849;SDS011;47660;51.334;12.396;2022-10-12T14:58:12;4.38;;;1.52;;
54849;SDS011;47660;51.334;12.396;2022-10-12T15:00:38;3.28;;;1.60;;
54849;SDS011;47660;51.334;12.396;2022-10-12T15:03:03;1.60;;;1.20;;
54849;SDS011;47660;51.334;12.396;2022-10-12T15:05:30;3.28;;;1.75;;
54849;SDS011;47660;51.334;12.396;2022-10-12T15:07:55;2.22;;;1.27;;
54849;SDS011;47660;51.334;12.396;2022-10-12T15:10:21;5.90;;;1.88;;
54849;SDS011;47660;51.334;12.396;2022-10-12T15:12:47;3.40;;;1.52;;
54849;SDS011;47660;51.334;12.396;2022-10-12T15:17:41;5.07;;;1.58;;
54849;SDS011;47660;51.334;12.396;2022-10-12T15:20:07;2.90;;;1.40;;
54849;SDS011;47660;51.334;12.396;2022-10-12T15:22:35;1.92;;;1.73;;
54849;SDS011;47660;51.334;12.396;2022-10-12T15:25:00;2.95;;;1.65;;
54849;SDS011;47660;51.334;12.396;2022-10-12T15:27:27;3.45;;;1.92;;
54849;SDS011;47660;51.334;12.396;2022-10-12T15:29:53;5.50;;;1.60;;
54849;SDS011;47660;51.334;12.396;2022-10-12T15:32:18;4.57;;;1.70;;
54849;SDS011;47660;51.334;12.396;2022-10-12T15:34:43;2.67;;;1.58;;
54849;SDS011;47660;51.334;12.396;2022-10-12T15:37:09;2.42;;;1.33;;
54849;SDS011;47660;51.334;12.396;2022-10-12T15:39:34;6.10;;;1.77;;
54849;SDS011;47660;51.334;12.396;2022-10-12T15:41:59;13.40;;;4.32;;
54849;SDS011;47660;51.334;12.396;2022-10-12T15:44:25;8.52;;;2.65;;
54849;SDS011;47660;51.334;12.396;2022-10-12T15:46:50;8.40;;;1.60;;
54849;SDS011;47660;51.334;12.396;2022-10-12T15:49:16;2.35;;;1.73;;
54849;SDS011;47660;51.334;12.396;2022-10-12T15:51:45;5.22;;;2.38;;
54849;SDS011;47660;51.334;12.396;2022-10-12T15:54:11;6.40;;;1.75;;
54849;SDS011;47660;51.334;12.396;2022-10-12T15:56:37;3.33;;;1.85;;
54849;SDS011;47660;51.334;12.396;2022-10-12T15:59:05;3.25;;;1.85;;
54849;SDS011;47660;51.334;12.396;2022-10-12T16:01:30;2.65;;;1.50;;
54849;SDS011;47660;51.334;12.396;2022-10-12T16:03:57;2.72;;;1.58;;
54849;SDS011;47660;51.334;12.396;2022-10-12T16:06:22;3.20;;;1.85;;
54849;SDS011;47660;51.334;12.396;2022-10-12T16:08:47;3.60;;;1.85;;
54849;SDS011;47660;51.334;12.396;2022-10-12T16:11:13;2.65;;;1.65;;
54849;SDS011;47660;51.334;12.396;2022-10-12T16:13:39;2.60;;;1.77;;